createdAt,value
2018-05-27T01:38:13.020Z,4.50
2018-05-27T02:41:18.313Z,4.00
2018-05-27T02:53:49.664Z,3.83
2018-05-27T02:56:31.692Z,3.63
2018-05-27T04:13:47.974Z,2.90
2018-05-27T05:16:39.159Z,3.20
2018-05-27T05:45:13.081Z,2.60
2018-05-27T05:47:57.548Z,2.10
2018-05-27T05:53:20.924Z,2.17
2018-05-27T05:55:49.067Z,2.30
2018-05-27T05:58:16.577Z,2.80
2018-05-27T06:00:45.319Z,2.40
2018-05-27T06:03:12.878Z,2.00
2018-05-27T06:05:40.346Z,2.20
2018-05-27T06:08:08.457Z,2.23
2018-05-27T06:10:35.850Z,2.37
2018-05-27T06:13:03.259Z,2.20
2018-05-27T06:15:30.783Z,2.23
2018-05-27T06:17:58.394Z,2.30
2018-05-27T06:20:25.919Z,1.90
2018-05-27T06:22:53.321Z,2.73
2018-05-27T06:25:20.848Z,2.10
2018-05-27T06:27:48.308Z,2.20
2018-05-27T06:30:15.823Z,1.80
2018-05-27T06:32:43.373Z,2.70
2018-05-27T06:35:10.797Z,2.27
2018-05-27T06:37:43.688Z,2.23
2018-05-27T06:40:11.771Z,2.10
2018-05-27T06:42:39.523Z,1.63
2018-05-27T07:00:52.641Z,1.80
2018-05-27T07:03:21.235Z,1.73
2018-05-27T07:05:50.353Z,1.70
2018-05-27T07:08:18.314Z,1.90
2018-05-27T07:10:46.744Z,1.87
2018-05-27T07:16:00.395Z,1.63
2018-05-27T07:18:27.841Z,1.70
2018-05-27T07:20:56.319Z,1.97
2018-05-27T07:26:10.074Z,1.80
2018-05-27T07:28:43.858Z,1.50
2018-05-27T10:04:30.776Z,1.80
2018-05-27T10:44:00.406Z,1.43
2018-05-27T10:46:47.413Z,1.90
2018-05-27T10:58:17.492Z,1.30
2018-05-27T12:12:30.839Z,1.27
2018-05-27T12:23:36.783Z,1.23
2018-05-27T12:42:54.313Z,1.30
2018-05-27T12:45:40.280Z,1.30
2018-05-27T12:48:12.133Z,1.20
2018-05-27T12:50:51.980Z,1.43
2018-05-27T13:31:58.205Z,1.40
2018-05-27T15:12:59.617Z,1.43
2018-05-27T15:36:01.342Z,1.30
2018-05-27T15:38:48.774Z,1.10
2018-05-27T15:41:19.376Z,1.00
2018-05-27T15:43:52.401Z,1.00
2018-05-27T15:46:20.438Z,1.00
2018-05-27T15:48:48.294Z,1.40
2018-05-27T15:51:16.026Z,1.03
2018-05-27T15:53:45.090Z,1.17
2018-05-27T15:56:13.506Z,1.30
2018-05-27T15:58:40.898Z,1.17
2018-05-27T16:01:08.411Z,1.20
2018-05-27T16:03:35.815Z,1.10
2018-05-27T16:06:04.032Z,1.40
2018-05-27T16:08:40.504Z,1.10
2018-05-27T16:11:10.290Z,0.90
2018-05-27T16:13:37.836Z,1.40
2018-05-27T16:16:05.404Z,1.10
2018-05-27T16:18:33.780Z,1.00
2018-05-27T16:21:01.449Z,1.00
2018-05-27T16:23:33.205Z,1.30
2018-05-27T16:26:14.545Z,1.50
2018-05-27T16:29:16.471Z,1.00
2018-05-27T16:31:59.810Z,1.03
2018-05-27T16:37:40.053Z,1.23
2018-05-27T16:40:23.991Z,1.50
2018-05-27T16:46:05.776Z,1.30
2018-05-27T17:05:30.038Z,1.00
2018-05-27T17:07:57.629Z,0.80
2018-05-27T17:10:25.401Z,0.87
2018-05-27T17:12:53.225Z,1.03
2018-05-27T17:15:20.710Z,1.00
2018-05-27T17:17:48.214Z,1.07
2018-05-27T17:20:17.252Z,0.93
2018-05-27T17:22:45.313Z,1.00
2018-05-27T17:25:14.653Z,0.83
2018-05-27T17:27:42.078Z,0.90
2018-05-27T17:30:09.624Z,1.33
2018-05-27T17:32:38.257Z,1.20
2018-05-27T17:35:05.793Z,1.13
2018-05-27T17:37:33.882Z,0.80
2018-05-27T17:40:01.497Z,0.73
2018-05-27T17:42:29.333Z,1.00
2018-05-27T17:44:57.934Z,0.90
2018-05-27T17:47:25.723Z,0.90
2018-05-27T17:49:53.178Z,0.70
2018-05-27T17:52:20.641Z,1.20
2018-05-27T17:54:48.283Z,0.77
2018-05-27T17:57:15.864Z,0.80
2018-05-27T17:59:43.305Z,1.07
2018-05-27T18:02:10.943Z,0.90
2018-05-27T18:04:38.337Z,1.00
2018-05-27T18:07:05.752Z,0.70
2018-05-27T18:09:33.190Z,0.83
2018-05-27T18:12:00.589Z,0.60
2018-05-27T18:14:28.125Z,0.90
2018-05-27T18:16:55.644Z,0.77
2018-05-27T18:19:23.134Z,0.87
2018-05-27T18:21:50.547Z,1.10
2018-05-27T18:24:18.021Z,0.90
2018-05-27T18:29:45.596Z,0.73
2018-05-27T18:32:23.219Z,0.97
2018-05-27T18:38:21.662Z,1.00
2018-05-27T18:47:15.339Z,0.77
2018-05-27T18:50:00.768Z,0.70
2018-05-27T18:58:08.423Z,0.90
2018-05-27T19:00:39.551Z,1.00
2018-05-27T19:03:07.085Z,0.90
2018-05-27T19:05:34.597Z,0.87
2018-05-27T19:08:01.990Z,0.67
2018-05-27T19:10:29.471Z,0.70
2018-05-27T19:12:56.918Z,0.97
2018-05-27T19:15:24.303Z,0.80
2018-05-27T19:17:51.755Z,0.53
2018-05-27T19:20:19.230Z,0.80
2018-05-27T19:22:46.634Z,0.80
2018-05-27T19:25:14.135Z,0.50
2018-05-27T19:27:41.735Z,0.77
2018-05-27T19:30:09.548Z,0.73
2018-05-27T19:32:41.081Z,1.00
2018-05-27T19:47:06.228Z,0.80
2018-05-27T19:53:06.831Z,1.20
2018-05-27T20:16:43.538Z,1.20
2018-05-27T20:31:00.271Z,1.20
2018-05-27T20:33:47.788Z,1.10
2018-05-27T20:36:19.993Z,1.30
2018-05-27T20:38:51.284Z,1.10
2018-05-27T20:41:23.875Z,1.00
2018-05-27T20:49:55.285Z,1.20
2018-05-27T22:13:03.892Z,1.40
2018-05-27T22:33:34.063Z,1.00
2018-05-27T22:42:13.077Z,1.50
2018-05-27T22:44:57.937Z,1.30
2018-05-27T22:50:20.508Z,1.40
2018-05-27T22:52:48.549Z,1.60
2018-05-27T22:55:31.383Z,1.40
2018-05-27T22:58:09.485Z,1.20
2018-05-27T23:00:43.602Z,1.30
2018-05-27T23:15:46.400Z,1.60
2018-05-27T23:21:25.213Z,1.47
2018-05-27T23:23:53.441Z,1.50
2018-05-27T23:31:13.041Z,1.20
2018-05-27T23:43:00.339Z,1.37
2018-05-27T23:51:33.482Z,1.83
2018-05-27T23:54:19.850Z,1.60
2018-05-27T23:59:50.267Z,1.43
